createdAt,value
2022-08-07T00:01:44.121Z,52.66
2022-08-07T00:04:45.391Z,52.83
2022-08-07T00:07:48.653Z,53.29
2022-08-07T00:11:01.268Z,53.27
2022-08-07T00:14:09.023Z,52.92
2022-08-07T00:17:13.957Z,53.23
2022-08-07T00:20:29.521Z,53.27
2022-08-07T00:23:39.520Z,53.98
2022-08-07T00:26:49.565Z,53.77
2022-08-07T00:30:06.280Z,53.43
2022-08-07T00:33:28.921Z,54.00
2022-08-07T00:36:35.914Z,54.10
2022-08-07T00:39:45.034Z,54.14
2022-08-07T00:42:50.261Z,54.84
2022-08-07T00:45:53.143Z,54.65
2022-08-07T00:48:56.882Z,54.11
2022-08-07T00:52:09.917Z,54.35
2022-08-07T00:55:12.970Z,54.43
2022-08-07T00:58:21.395Z,54.35
2022-08-07T01:01:24.666Z,54.28
2022-08-07T01:04:27.465Z,54.39
2022-08-07T01:07:33.381Z,54.71
2022-08-07T01:10:36.442Z,54.77
2022-08-07T01:13:39.833Z,54.92
2022-08-07T01:16:59.279Z,55.62
2022-08-07T01:20:08.325Z,55.12
2022-08-07T01:23:13.883Z,55.11
2022-08-07T01:26:20.904Z,55.74
2022-08-07T01:29:27.889Z,55.47
2022-08-07T01:32:32.386Z,55.87
2022-08-07T01:35:36.922Z,55.24
2022-08-07T01:38:57.408Z,56.39
2022-08-07T01:42:36.919Z,55.85
2022-08-07T01:45:37.050Z,55.59
2022-08-07T01:48:48.010Z,55.54
2022-08-07T01:52:01.619Z,56.02
2022-08-07T01:55:10.249Z,56.29
2022-08-07T01:58:33.226Z,56.48
2022-08-07T02:01:59.830Z,56.07
2022-08-07T02:05:16.069Z,56.22
2022-08-07T02:08:40.568Z,56.55
2022-08-07T02:12:03.038Z,57.10
2022-08-07T02:15:10.307Z,57.25
2022-08-07T02:18:15.340Z,57.30
2022-08-07T02:21:21.891Z,57.12
2022-08-07T02:24:26.337Z,57.07
2022-08-07T02:27:34.748Z,58.32
2022-08-07T02:30:39.592Z,58.95
2022-08-07T02:34:01.750Z,59.18
2022-08-07T02:37:08.912Z,59.51
2022-08-07T02:40:31.023Z,59.22
2022-08-07T02:43:39.629Z,59.11
2022-08-07T02:46:46.545Z,60.07
2022-08-07T02:49:59.029Z,60.06
2022-08-07T02:53:10.972Z,60.34
2022-08-07T02:56:21.737Z,59.70
2022-08-07T02:59:27.639Z,60.39
2022-08-07T03:02:33.947Z,61.05
2022-08-07T03:05:38.099Z,60.88
2022-08-07T03:08:41.942Z,61.09
2022-08-07T03:11:52.315Z,60.74
2022-08-07T03:15:02.370Z,60.79
2022-08-07T03:18:11.575Z,60.78
2022-08-07T03:21:20.917Z,61.55
2022-08-07T03:24:27.908Z,61.80
2022-08-07T03:27:59.015Z,61.98
2022-08-07T03:31:16.519Z,61.97
2022-08-07T03:34:22.547Z,61.43
2022-08-07T03:37:28.109Z,61.75
2022-08-07T03:40:37.236Z,61.75
2022-08-07T03:43:56.839Z,61.43
2022-08-07T03:47:14.066Z,61.55
2022-08-07T03:50:23.098Z,62.01
2022-08-07T03:53:50.248Z,62.29
2022-08-07T03:57:03.488Z,61.33
2022-08-07T04:00:12.186Z,61.79
2022-08-07T04:03:18.475Z,62.24
2022-08-07T04:06:37.119Z,61.90
2022-08-07T04:09:50.333Z,62.38
2022-08-07T04:12:55.359Z,62.05
2022-08-07T04:15:58.710Z,61.50
2022-08-07T04:19:15.179Z,62.09
2022-08-07T04:22:19.644Z,62.02
2022-08-07T04:25:29.317Z,62.31
2022-08-07T04:28:33.386Z,62.34
2022-08-07T04:32:02.994Z,61.96
2022-08-07T04:35:05.791Z,62.20
2022-08-07T04:38:11.550Z,61.15
2022-08-07T04:41:19.028Z,61.89
2022-08-07T04:44:23.859Z,61.59
2022-08-07T04:48:01.133Z,62.20
2022-08-07T04:51:10.232Z,61.71
2022-08-07T04:54:41.302Z,61.73
2022-08-07T04:58:33.682Z,61.31
2022-08-07T05:01:50.569Z,60.66
2022-08-07T05:05:53.799Z,59.90
2022-08-07T05:09:01.143Z,59.44
2022-08-07T05:12:09.115Z,59.79
2022-08-07T05:15:24.090Z,58.85
2022-08-07T05:18:32.055Z,58.93
2022-08-07T05:21:58.941Z,58.53
2022-08-07T05:25:00.896Z,58.41
2022-08-07T05:28:20.443Z,58.05
2022-08-07T05:31:35.366Z,57.43
2022-08-07T05:34:42.016Z,56.74
2022-08-07T05:37:46.460Z,57.46
2022-08-07T05:41:14.644Z,56.39
2022-08-07T05:44:29.385Z,55.76
2022-08-07T05:47:38.210Z,55.84
2022-08-07T05:51:01.142Z,55.16
2022-08-07T05:54:09.216Z,54.22
2022-08-07T05:57:34.618Z,53.79
2022-08-07T06:00:42.068Z,54.21
2022-08-07T06:03:58.705Z,53.62
2022-08-07T06:07:06.095Z,53.77
2022-08-07T06:10:15.421Z,53.36
2022-08-07T06:13:20.890Z,53.69
2022-08-07T06:16:50.544Z,54.13
2022-08-07T06:20:04.068Z,53.88
2022-08-07T06:23:45.754Z,53.22
2022-08-07T06:26:32.658Z,54.13
2022-08-07T06:29:38.990Z,53.33
2022-08-07T06:32:42.220Z,53.36
2022-08-07T06:35:48.130Z,53.15
2022-08-07T06:40:13.667Z,53.18
2022-08-07T06:42:37.572Z,52.76
2022-08-07T06:45:44.299Z,52.94
2022-08-07T06:48:48.357Z,52.34
2022-08-07T06:51:57.933Z,51.84
2022-08-07T06:55:53.803Z,51.04
2022-08-07T07:00:14.842Z,52.26
2022-08-07T07:02:49.236Z,52.27
2022-08-07T07:06:04.026Z,52.05
2022-08-07T07:09:17.492Z,51.73
2022-08-07T07:12:33.552Z,51.39
2022-08-07T07:15:43.157Z,51.94
2022-08-07T07:18:56.251Z,50.62
2022-08-07T07:22:05.490Z,50.67
2022-08-07T07:26:35.786Z,49.95
2022-08-07T07:29:40.117Z,50.16
2022-08-07T07:32:18.813Z,51.32
2022-08-07T07:35:23.133Z,49.56
2022-08-07T07:38:26.470Z,49.98
2022-08-07T07:41:50.743Z,51.92
2022-08-07T07:45:02.569Z,51.69
2022-08-07T07:48:07.711Z,51.63
2022-08-07T07:51:15.618Z,52.13
2022-08-07T07:54:24.983Z,53.19
2022-08-07T07:57:52.163Z,51.45
2022-08-07T08:00:54.797Z,50.76
2022-08-07T08:04:09.436Z,51.12
2022-08-07T08:07:15.604Z,51.24
2022-08-07T08:10:38.146Z,50.85
2022-08-07T08:13:54.294Z,48.52
2022-08-07T08:17:55.497Z,48.32
2022-08-07T08:20:31.970Z,47.57
2022-08-07T08:23:54.433Z,47.14
2022-08-07T08:27:09.408Z,46.25
2022-08-07T08:30:20.134Z,45.10
2022-08-07T08:33:28.941Z,47.45
2022-08-07T08:36:39.578Z,46.89
2022-08-07T08:39:55.144Z,46.87
2022-08-07T08:43:20.011Z,47.44
2022-08-07T08:46:52.034Z,46.58
2022-08-07T08:50:39.323Z,46.18
2022-08-07T08:53:54.917Z,47.83
2022-08-07T08:57:02.344Z,47.13
2022-08-07T09:00:09.081Z,46.79
2022-08-07T09:03:47.598Z,45.80
2022-08-07T09:06:56.475Z,45.38
2022-08-07T09:10:07.995Z,45.85
2022-08-07T09:13:37.735Z,46.48
2022-08-07T09:16:47.529Z,45.47
2022-08-07T09:20:34.632Z,45.05
2022-08-07T09:24:30.645Z,45.93
2022-08-07T09:27:59.482Z,43.81
2022-08-07T09:31:11.847Z,43.34
2022-08-07T09:34:27.673Z,44.88
2022-08-07T09:37:48.199Z,42.80
2022-08-07T09:41:03.553Z,42.54
2022-08-07T09:44:40.477Z,42.60
2022-08-07T09:48:11.693Z,42.00
2022-08-07T09:52:10.152Z,42.20
2022-08-07T09:56:03.151Z,41.59
2022-08-07T09:58:58.879Z,40.82
2022-08-07T10:02:03.133Z,40.78
2022-08-07T10:06:00.390Z,40.56
2022-08-07T10:09:16.151Z,39.79
2022-08-07T10:12:39.609Z,40.68
2022-08-07T10:16:27.069Z,40.64
2022-08-07T10:19:43.510Z,41.28
2022-08-07T10:23:03.100Z,41.17
2022-08-07T10:26:57.939Z,40.88
2022-08-07T10:30:13.217Z,40.01
2022-08-07T10:34:05.769Z,41.36
2022-08-07T10:38:00.640Z,40.71
2022-08-07T10:41:08.175Z,40.57
2022-08-07T10:44:33.893Z,39.33
2022-08-07T10:48:18.320Z,40.56
2022-08-07T10:51:39.740Z,39.00
2022-08-07T10:55:26.784Z,38.40
2022-08-07T10:59:21.552Z,38.22
2022-08-07T11:02:33.597Z,38.43
2022-08-07T11:06:08.692Z,38.24
2022-08-07T11:10:09.641Z,37.46
2022-08-07T11:13:42.493Z,37.90
2022-08-07T11:16:52.790Z,37.63
2022-08-07T11:20:10.945Z,36.64
2022-08-07T11:23:30.857Z,38.04
2022-08-07T11:27:02.073Z,38.79
2022-08-07T11:30:17.544Z,37.79
2022-08-07T11:33:53.893Z,37.65
2022-08-07T11:37:02.785Z,37.82
2022-08-07T11:40:42.172Z,36.68
2022-08-07T11:44:12.145Z,36.63
2022-08-07T11:47:56.517Z,37.65
2022-08-07T11:51:40.959Z,37.33
2022-08-07T11:56:15.605Z,37.66
2022-08-07T12:00:07.635Z,38.58
2022-08-07T12:02:59.905Z,38.25
2022-08-07T12:07:00.329Z,37.77
2022-08-07T12:10:14.662Z,38.31
2022-08-07T12:13:36.665Z,38.12
2022-08-07T12:16:53.821Z,38.55
2022-08-07T12:20:30.625Z,38.48
2022-08-07T12:24:05.425Z,38.22
2022-08-07T12:27:18.623Z,39.26
2022-08-07T12:30:39.194Z,38.39
2022-08-07T12:34:01.389Z,37.28
2022-08-07T12:37:08.146Z,36.77
2022-08-07T12:40:46.700Z,37.80
2022-08-07T12:44:02.451Z,37.22
2022-08-07T12:47:50.234Z,38.26
2022-08-07T12:51:17.109Z,37.60
2022-08-07T12:54:38.387Z,38.06
2022-08-07T12:58:01.328Z,36.61
2022-08-07T13:01:32.071Z,36.12
2022-08-07T13:05:01.673Z,36.67
2022-08-07T13:08:42.881Z,36.88
2022-08-07T13:12:10.082Z,37.16
2022-08-07T13:15:34.590Z,37.48
2022-08-07T13:19:21.922Z,37.46
2022-08-07T13:22:40.753Z,36.62
2022-08-07T13:26:15.928Z,37.58
2022-08-07T13:29:34.679Z,36.20
2022-08-07T13:33:01.613Z,36.54
2022-08-07T13:36:14.656Z,36.81
2022-08-07T13:40:33.882Z,35.83
2022-08-07T13:43:06.781Z,35.94
2022-08-07T13:46:22.060Z,35.93
2022-08-07T13:50:34.653Z,36.60
2022-08-07T13:53:00.815Z,37.21
2022-08-07T13:56:05.669Z,36.15
2022-08-07T13:59:13.163Z,36.02
2022-08-07T14:02:33.421Z,36.41
2022-08-07T14:05:46.354Z,35.76
2022-08-07T14:08:54.570Z,35.39
2022-08-07T14:12:04.733Z,34.70
2022-08-07T14:15:22.425Z,35.00
2022-08-07T14:18:33.271Z,35.08
2022-08-07T14:22:02.406Z,34.97
2022-08-07T14:25:11.850Z,34.25
2022-08-07T14:28:19.183Z,35.35
2022-08-07T14:31:25.364Z,34.52
2022-08-07T14:34:48.881Z,34.41
2022-08-07T14:38:05.528Z,34.78
2022-08-07T14:41:15.134Z,35.07
2022-08-07T14:44:20.153Z,35.58
2022-08-07T14:51:01.969Z,35.64
2022-08-07T14:57:54.728Z,34.19
2022-08-07T15:00:57.942Z,35.18
2022-08-07T15:04:06.585Z,34.65
2022-08-07T15:07:17.724Z,34.75
2022-08-07T15:10:29.919Z,34.05
2022-08-07T15:13:35.837Z,35.51
2022-08-07T15:17:16.727Z,35.20
2022-08-07T15:27:20.618Z,34.46
2022-08-07T15:30:28.572Z,34.21
2022-08-07T15:33:36.320Z,34.19
2022-08-07T15:37:04.132Z,35.00
2022-08-07T15:40:11.280Z,34.86
2022-08-07T15:43:33.330Z,35.32
2022-08-07T15:46:47.371Z,35.12
2022-08-07T15:53:24.816Z,35.20
2022-08-07T15:56:48.232Z,35.63
2022-08-07T15:59:53.218Z,35.88
2022-08-07T16:03:21.877Z,35.52
2022-08-07T16:06:50.559Z,34.73
2022-08-07T16:09:57.385Z,35.21
2022-08-07T16:13:57.644Z,35.92
2022-08-07T16:18:02.918Z,34.99
2022-08-07T16:22:01.323Z,35.81
2022-08-07T16:24:52.845Z,34.92
2022-08-07T16:27:58.640Z,35.21
2022-08-07T16:31:51.668Z,35.69
2022-08-07T16:35:50.693Z,35.72
2022-08-07T16:39:40.649Z,35.37
2022-08-07T16:44:03.674Z,35.56
2022-08-07T16:47:51.439Z,35.74
2022-08-07T16:51:20.882Z,35.91
2022-08-07T16:54:33.040Z,36.11
2022-08-07T16:58:04.433Z,36.40
2022-08-07T17:01:34.353Z,36.74
2022-08-07T17:05:01.163Z,36.18
2022-08-07T17:08:13.341Z,36.46
2022-08-07T17:12:01.866Z,36.58
2022-08-07T17:15:03.557Z,37.29
2022-08-07T17:18:28.965Z,37.43
2022-08-07T17:22:01.840Z,37.72
2022-08-07T17:25:15.180Z,37.45
2022-08-07T17:28:31.306Z,37.60
2022-08-07T17:32:03.045Z,37.89
2022-08-07T17:35:49.874Z,38.09
2022-08-07T17:39:53.014Z,38.48
2022-08-07T17:43:18.453Z,38.52
2022-08-07T17:46:36.060Z,38.73
2022-08-07T17:49:56.391Z,38.60
2022-08-07T17:53:59.829Z,38.76
2022-08-07T17:57:01.753Z,38.76
2022-08-07T18:00:11.759Z,39.13
2022-08-07T18:04:03.900Z,39.17
2022-08-07T18:07:20.456Z,39.54
2022-08-07T18:12:08.053Z,39.37
2022-08-07T18:14:38.282Z,39.26
2022-08-07T18:18:47.543Z,39.83
2022-08-07T18:21:55.196Z,39.80
2022-08-07T18:25:19.202Z,39.87
2022-08-07T18:30:06.641Z,39.80
2022-08-07T18:32:55.115Z,40.26
2022-08-07T18:36:38.669Z,40.50
2022-08-07T18:40:38.827Z,40.53
2022-08-07T18:43:37.263Z,40.74
2022-08-07T18:47:08.115Z,40.96
2022-08-07T18:50:32.814Z,40.96
2022-08-07T18:53:54.046Z,41.23
2022-08-07T18:57:39.945Z,41.15
2022-08-07T19:00:54.391Z,41.20
2022-08-07T19:04:28.181Z,41.63
2022-08-07T19:07:59.700Z,42.01
2022-08-07T19:11:36.475Z,42.59
2022-08-07T19:16:02.937Z,42.26
2022-08-07T19:18:45.166Z,42.49
2022-08-07T19:22:07.542Z,42.51
2022-08-07T19:26:22.738Z,42.83
2022-08-07T19:30:55.224Z,42.70
2022-08-07T19:32:29.111Z,42.84
2022-08-07T19:35:43.715Z,42.62
2022-08-07T19:38:53.138Z,42.71
2022-08-07T19:42:08.398Z,42.43
2022-08-07T19:46:04.951Z,42.51
2022-08-07T19:48:59.525Z,42.79
2022-08-07T19:52:03.823Z,42.79
2022-08-07T19:55:11.016Z,42.96
2022-08-07T19:58:15.823Z,43.55
2022-08-07T20:01:20.490Z,43.36
2022-08-07T20:04:31.843Z,43.39
2022-08-07T20:07:48.173Z,43.67
2022-08-07T20:11:34.036Z,43.29
2022-08-07T20:14:53.623Z,43.12
2022-08-07T20:18:03.240Z,43.30
2022-08-07T20:21:14.406Z,42.89
2022-08-07T20:24:29.912Z,42.63
2022-08-07T20:27:47.717Z,42.83
2022-08-07T20:30:51.696Z,42.85
2022-08-07T20:33:57.394Z,42.36
2022-08-07T20:37:01.172Z,42.27
2022-08-07T20:40:33.480Z,41.97
2022-08-07T20:43:34.849Z,42.40
2022-08-07T20:46:44.138Z,42.02
2022-08-07T20:49:59.231Z,41.91
2022-08-07T20:53:05.753Z,42.17
2022-08-07T20:56:10.561Z,42.01
2022-08-07T21:00:04.673Z,42.36
2022-08-07T21:02:58.135Z,42.19
2022-08-07T21:06:22.313Z,42.67
2022-08-07T21:09:52.484Z,42.72
2022-08-07T21:13:05.804Z,42.35
2022-08-07T21:16:10.753Z,42.07
2022-08-07T21:19:15.713Z,42.17
2022-08-07T21:22:25.543Z,42.21
2022-08-07T21:25:52.232Z,41.78
2022-08-07T21:29:07.268Z,41.95
2022-08-07T21:32:50.963Z,41.78
2022-08-07T21:36:11.862Z,42.08
2022-08-07T21:39:48.596Z,42.17
2022-08-07T21:43:11.235Z,42.51
2022-08-07T21:46:25.175Z,42.26
2022-08-07T21:50:14.719Z,41.88
2022-08-07T21:53:28.772Z,41.43
2022-08-07T21:57:30.798Z,41.23
2022-08-07T22:00:36.361Z,41.01
2022-08-07T22:04:00.509Z,41.28
2022-08-07T22:07:14.693Z,41.63
2022-08-07T22:10:24.508Z,42.09
2022-08-07T22:13:52.739Z,41.96
2022-08-07T22:17:00.252Z,42.27
2022-08-07T22:20:23.438Z,41.86
2022-08-07T22:23:40.469Z,42.12
2022-08-07T22:26:59.057Z,42.08
2022-08-07T22:30:12.846Z,41.96
2022-08-07T22:33:17.843Z,42.28
2022-08-07T22:36:52.551Z,41.94
2022-08-07T22:40:23.148Z,41.70
2022-08-07T22:43:36.175Z,41.40
2022-08-07T22:47:16.863Z,41.61
2022-08-07T22:50:29.024Z,41.84
2022-08-07T22:54:08.305Z,41.62
2022-08-07T22:57:54.564Z,42.24
2022-08-07T23:01:06.305Z,42.21
2022-08-07T23:04:57.068Z,42.56
2022-08-07T23:08:24.400Z,42.57
2022-08-07T23:11:45.998Z,42.92
2022-08-07T23:16:05.434Z,42.61
2022-08-07T23:19:47.825Z,42.44
2022-08-07T23:23:10.399Z,43.03
2022-08-07T23:26:19.732Z,43.05
2022-08-07T23:29:43.758Z,42.77
2022-08-07T23:34:36.540Z,42.47
2022-08-07T23:37:23.774Z,42.83
2022-08-07T23:40:33.169Z,43.40
2022-08-07T23:44:03.723Z,42.72
2022-08-07T23:47:20.087Z,43.36
2022-08-07T23:50:54.448Z,43.61
2022-08-07T23:54:11.564Z,43.23
2022-08-07T23:57:36.339Z,42.79
